createdAt,value
2023-05-07T00:00:41.365Z,16.90
2023-05-07T00:03:09.009Z,16.90
2023-05-07T00:05:37.247Z,16.90
2023-05-07T00:08:05.178Z,16.80
2023-05-07T00:10:32.715Z,16.80
2023-05-07T00:13:00.633Z,16.70
2023-05-07T00:15:28.155Z,16.50
2023-05-07T00:17:57.921Z,16.30
2023-05-07T00:20:25.529Z,16.20
2023-05-07T00:22:53.893Z,16.10
2023-05-07T00:25:21.816Z,15.40
2023-05-07T00:27:49.261Z,15.30
2023-05-07T00:30:17.163Z,15.50
2023-05-07T00:32:46.736Z,15.80
2023-05-07T00:35:14.329Z,16.00
2023-05-07T00:37:41.942Z,16.10
2023-05-07T00:40:10.323Z,16.20
2023-05-07T00:42:38.502Z,16.30
2023-05-07T00:45:06.418Z,16.40
2023-05-07T00:47:34.047Z,16.20
2023-05-07T00:50:01.944Z,16.20
2023-05-07T00:52:30.751Z,16.20
2023-05-07T00:54:58.538Z,15.90
2023-05-07T00:57:26.652Z,15.60
2023-05-07T00:59:54.239Z,15.60
2023-05-07T01:02:21.812Z,15.80
2023-05-07T01:04:49.328Z,15.90
2023-05-07T01:07:17.240Z,16.10
2023-05-07T01:09:45.285Z,16.20
2023-05-07T01:12:13.141Z,16.20
2023-05-07T01:14:40.609Z,16.30
2023-05-07T01:17:09.794Z,16.30
2023-05-07T01:19:37.383Z,16.30
2023-05-07T01:22:09.985Z,16.30
2023-05-07T01:24:38.953Z,16.30
2023-05-07T01:27:06.685Z,16.20
2023-05-07T01:29:34.303Z,16.10
2023-05-07T01:32:03.810Z,16.10
2023-05-07T01:34:35.997Z,16.20
2023-05-07T01:37:04.017Z,16.20
2023-05-07T01:39:32.113Z,16.30
2023-05-07T01:42:00.932Z,16.40
2023-05-07T01:44:28.844Z,16.40
2023-05-07T01:46:56.857Z,16.40
2023-05-07T01:49:24.396Z,16.40
2023-05-07T01:51:52.549Z,16.30
2023-05-07T01:54:21.690Z,16.20
2023-05-07T01:56:50.103Z,16.20
2023-05-07T01:59:17.615Z,16.20
2023-05-07T02:01:45.188Z,15.90
2023-05-07T02:04:12.897Z,15.50
2023-05-07T02:06:40.650Z,15.10
2023-05-07T02:09:10.049Z,14.70
2023-05-07T02:11:37.552Z,14.50
2023-05-07T02:14:05.081Z,14.50
2023-05-07T02:16:32.613Z,14.40
2023-05-07T02:19:00.166Z,14.60
2023-05-07T02:21:29.440Z,14.90
2023-05-07T02:23:58.183Z,15.30
2023-05-07T02:26:27.058Z,15.40
2023-05-07T02:28:55.068Z,15.40
2023-05-07T02:31:22.693Z,15.30
2023-05-07T02:33:50.298Z,15.40
2023-05-07T02:36:17.932Z,15.60
2023-05-07T02:38:45.698Z,15.70
2023-05-07T02:41:13.308Z,15.90
2023-05-07T02:43:41.018Z,15.90
2023-05-07T02:46:10.208Z,15.90
2023-05-07T02:48:37.802Z,15.80
2023-05-07T02:51:06.869Z,15.70
2023-05-07T02:53:34.361Z,15.70
2023-05-07T02:56:03.054Z,15.60
2023-05-07T02:58:30.597Z,15.60
2023-05-07T03:00:58.306Z,15.60
2023-05-07T03:03:25.972Z,15.50
2023-05-07T03:05:53.462Z,15.60
2023-05-07T03:08:20.958Z,15.70
2023-05-07T03:10:48.700Z,15.80
2023-05-07T03:13:16.449Z,15.80
2023-05-07T03:15:44.160Z,15.80
2023-05-07T03:18:11.779Z,15.90
2023-05-07T03:20:39.455Z,16.00
2023-05-07T03:23:06.896Z,16.20
2023-05-07T03:25:34.742Z,16.20
2023-05-07T03:28:02.375Z,16.10
2023-05-07T03:30:29.874Z,16.30
2023-05-07T03:32:57.660Z,16.30
2023-05-07T03:35:25.484Z,16.50
2023-05-07T03:37:52.983Z,16.60
2023-05-07T03:40:20.769Z,16.50
2023-05-07T03:42:48.474Z,16.50
2023-05-07T03:45:16.583Z,16.60
2023-05-07T03:47:44.237Z,16.60
2023-05-07T03:50:12.098Z,16.60
2023-05-07T03:52:39.724Z,16.60
2023-05-07T03:55:08.615Z,16.60
2023-05-07T03:57:36.258Z,16.60
2023-05-07T04:00:05.634Z,16.50
2023-05-07T04:02:34.620Z,16.60
2023-05-07T04:05:02.448Z,16.60
2023-05-07T04:07:29.910Z,16.60
2023-05-07T04:09:57.383Z,16.50
2023-05-07T04:12:24.925Z,16.50
2023-05-07T04:14:52.420Z,16.60
2023-05-07T04:17:19.896Z,16.50
2023-05-07T04:19:48.045Z,16.40
2023-05-07T04:22:15.727Z,16.40
2023-05-07T04:24:43.237Z,16.40
2023-05-07T04:27:10.763Z,16.40
2023-05-07T04:29:38.299Z,16.40
2023-05-07T04:32:06.220Z,16.40
2023-05-07T04:34:33.905Z,16.30
2023-05-07T04:37:01.868Z,16.30
2023-05-07T04:39:29.451Z,16.30
2023-05-07T04:41:56.980Z,16.30
2023-05-07T04:44:24.521Z,16.40
2023-05-07T04:46:52.035Z,16.30
2023-05-07T04:49:19.552Z,16.40
2023-05-07T04:51:47.015Z,16.30
2023-05-07T04:54:14.465Z,16.40
2023-05-07T04:56:42.656Z,16.50
2023-05-07T04:59:10.115Z,16.10
2023-05-07T05:01:37.732Z,15.60
2023-05-07T05:04:05.541Z,15.40
2023-05-07T05:06:33.357Z,15.20
2023-05-07T05:09:00.934Z,15.30
2023-05-07T05:11:28.629Z,15.60
2023-05-07T05:13:56.171Z,15.60
2023-05-07T05:16:23.805Z,15.50
2023-05-07T05:18:53.325Z,16.00
2023-05-07T05:21:21.069Z,16.50
2023-05-07T05:23:48.640Z,16.60
2023-05-07T05:26:16.316Z,16.20
2023-05-07T05:28:43.857Z,15.90
2023-05-07T05:31:11.771Z,16.00
2023-05-07T05:33:39.550Z,16.20
2023-05-07T05:36:07.847Z,16.60
2023-05-07T05:38:35.581Z,16.80
2023-05-07T05:41:03.327Z,16.70
2023-05-07T05:43:31.157Z,17.10
2023-05-07T05:45:58.961Z,17.20
2023-05-07T05:48:27.130Z,17.40
2023-05-07T05:50:54.600Z,17.60
2023-05-07T05:53:22.093Z,17.30
2023-05-07T05:55:50.635Z,17.10
2023-05-07T05:58:18.158Z,17.30
2023-05-07T06:00:49.502Z,17.50
2023-05-07T06:03:17.555Z,17.90
2023-05-07T06:05:46.537Z,18.10
2023-05-07T06:08:15.041Z,17.90
2023-05-07T06:10:42.941Z,18.00
2023-05-07T06:13:10.614Z,18.20
2023-05-07T06:15:38.200Z,18.30
2023-05-07T06:18:05.936Z,18.60
2023-05-07T06:20:33.510Z,18.90
2023-05-07T06:23:01.193Z,19.10
2023-05-07T06:25:28.926Z,19.20
2023-05-07T06:27:56.392Z,19.60
2023-05-07T06:30:23.990Z,19.60
2023-05-07T06:32:51.614Z,19.80
2023-05-07T06:35:19.177Z,20.10
2023-05-07T06:37:46.814Z,20.30
2023-05-07T06:40:14.369Z,20.40
2023-05-07T06:42:41.868Z,20.20
2023-05-07T06:45:09.967Z,20.30
2023-05-07T06:47:37.494Z,19.80
2023-05-07T06:50:05.231Z,19.10
2023-05-07T06:52:33.020Z,18.80
2023-05-07T06:55:01.361Z,18.70
2023-05-07T06:57:28.894Z,18.90
2023-05-07T06:59:56.374Z,18.80
2023-05-07T07:02:23.979Z,18.70
2023-05-07T07:04:51.597Z,18.50
2023-05-07T07:07:19.161Z,18.60
2023-05-07T07:09:46.708Z,18.60
2023-05-07T07:12:14.149Z,18.70
2023-05-07T07:14:41.587Z,18.70
2023-05-07T07:17:09.097Z,18.70
2023-05-07T07:19:37.200Z,18.90
2023-05-07T07:22:04.789Z,18.90
2023-05-07T07:24:32.295Z,18.70
2023-05-07T07:26:59.736Z,18.60
2023-05-07T07:29:27.857Z,18.70
2023-05-07T07:31:55.493Z,18.70
2023-05-07T07:34:23.148Z,18.70
2023-05-07T07:36:50.568Z,18.70
2023-05-07T07:39:18.219Z,18.70
2023-05-07T07:41:45.652Z,18.70
2023-05-07T07:44:16.093Z,19.00
2023-05-07T07:46:44.034Z,18.80
2023-05-07T07:49:11.513Z,18.90
2023-05-07T07:51:39.125Z,18.90
2023-05-07T07:54:06.689Z,19.10
2023-05-07T07:56:37.407Z,19.20
2023-05-07T07:59:04.987Z,19.40
2023-05-07T08:01:32.981Z,19.10
2023-05-07T08:04:00.869Z,19.20
2023-05-07T08:06:28.478Z,19.00
2023-05-07T08:08:56.387Z,18.80
2023-05-07T08:11:24.076Z,18.40
2023-05-07T08:13:51.818Z,18.30
2023-05-07T08:16:20.096Z,18.50
2023-05-07T08:18:48.581Z,18.60
2023-05-07T08:21:16.279Z,19.00
2023-05-07T08:23:43.834Z,18.90
2023-05-07T08:26:11.304Z,18.90
2023-05-07T08:28:38.773Z,19.00
2023-05-07T08:31:06.409Z,18.90
2023-05-07T08:33:33.903Z,18.90
2023-05-07T08:36:01.326Z,19.10
2023-05-07T08:38:28.864Z,19.20
2023-05-07T08:40:56.662Z,19.60
2023-05-07T08:43:29.062Z,19.70
2023-05-07T08:45:58.735Z,19.60
2023-05-07T08:48:28.439Z,19.90
2023-05-07T08:50:56.180Z,19.60
2023-05-07T08:53:23.838Z,19.80
2023-05-07T08:55:51.508Z,20.30
2023-05-07T08:58:18.986Z,20.80
2023-05-07T09:00:47.985Z,21.00
2023-05-07T09:03:15.621Z,21.40
2023-05-07T09:05:44.924Z,21.40
2023-05-07T09:08:17.185Z,21.30
2023-05-07T09:10:45.799Z,21.20
2023-05-07T09:13:15.897Z,20.70
2023-05-07T09:15:43.448Z,19.80
2023-05-07T09:18:10.937Z,19.70
2023-05-07T09:20:39.344Z,19.80
2023-05-07T09:23:10.116Z,20.20
2023-05-07T09:25:38.434Z,20.40
2023-05-07T09:28:11.260Z,20.50
2023-05-07T09:30:38.816Z,20.50
2023-05-07T09:33:06.406Z,20.50
2023-05-07T09:35:33.928Z,20.50
2023-05-07T09:38:04.313Z,20.50
2023-05-07T09:40:32.632Z,20.80
2023-05-07T09:43:12.429Z,20.90
2023-05-07T09:45:40.304Z,20.90
2023-05-07T09:48:08.570Z,21.00
2023-05-07T09:50:51.441Z,21.00
2023-05-07T09:53:19.093Z,20.90
2023-05-07T09:55:47.176Z,20.90
2023-05-07T09:58:17.583Z,21.20
2023-05-07T10:00:45.573Z,21.10
2023-05-07T10:03:14.139Z,21.40
2023-05-07T10:05:43.589Z,21.20
2023-05-07T10:08:11.775Z,21.50
2023-05-07T10:10:39.607Z,21.30
2023-05-07T10:13:11.367Z,21.30
2023-05-07T10:15:38.954Z,21.70
2023-05-07T10:18:07.724Z,21.60
2023-05-07T10:20:37.648Z,21.40
2023-05-07T10:23:07.054Z,21.30
2023-05-07T10:25:34.800Z,21.50
2023-05-07T10:28:07.805Z,21.60
2023-05-07T10:30:47.593Z,21.40
2023-05-07T10:33:18.155Z,21.40
2023-05-07T10:35:47.923Z,21.50
2023-05-07T10:38:18.225Z,21.40
2023-05-07T10:40:47.928Z,21.40
2023-05-07T10:43:15.877Z,21.30
2023-05-07T10:45:43.464Z,21.20
2023-05-07T10:50:44.821Z,21.60
2023-05-07T10:53:18.067Z,21.40
2023-05-07T10:55:53.770Z,21.40
2023-05-07T10:58:33.022Z,21.40
2023-05-07T11:01:02.515Z,21.50
2023-05-07T11:03:30.804Z,21.40
2023-05-07T11:06:15.667Z,21.30
2023-05-07T11:08:58.631Z,21.20
2023-05-07T11:11:47.669Z,21.00
2023-05-07T11:14:35.962Z,21.20
2023-05-07T11:17:06.420Z,21.30
2023-05-07T11:19:53.450Z,21.60
2023-05-07T11:22:33.061Z,21.90
2023-05-07T11:25:04.897Z,22.10
2023-05-07T11:27:32.736Z,22.10
2023-05-07T11:30:02.236Z,22.00
2023-05-07T11:32:31.977Z,22.10
2023-05-07T11:35:01.727Z,22.20
2023-05-07T11:37:31.039Z,22.50
2023-05-07T11:40:06.638Z,22.80
2023-05-07T11:42:36.825Z,22.90
2023-05-07T11:45:05.594Z,23.00
2023-05-07T11:47:33.715Z,22.60
2023-05-07T11:50:09.104Z,22.30
2023-05-07T11:52:37.572Z,21.70
2023-05-07T11:55:05.853Z,21.50
2023-05-07T11:57:35.600Z,21.70
2023-05-07T12:00:05.764Z,21.90
2023-05-07T12:02:33.646Z,22.20
2023-05-07T12:05:02.123Z,22.40
2023-05-07T12:07:29.683Z,22.70
2023-05-07T12:09:57.240Z,22.70
2023-05-07T12:12:25.006Z,23.00
2023-05-07T12:14:53.276Z,23.10
2023-05-07T12:17:20.839Z,22.90
2023-05-07T12:19:48.668Z,23.30
2023-05-07T12:22:16.321Z,23.60
2023-05-07T12:25:10.572Z,24.00
2023-05-07T12:27:40.170Z,24.30
2023-05-07T12:30:10.955Z,24.30
2023-05-07T12:32:38.630Z,24.10
2023-05-07T12:35:07.986Z,24.00
2023-05-07T12:37:37.234Z,23.60
2023-05-07T12:40:09.175Z,23.10
2023-05-07T12:42:41.076Z,23.00
2023-05-07T12:45:13.225Z,22.60
2023-05-07T12:47:44.721Z,22.70
2023-05-07T12:50:12.774Z,22.80
2023-05-07T12:52:40.548Z,22.70
2023-05-07T12:55:09.382Z,22.90
2023-05-07T12:57:41.582Z,23.10
2023-05-07T13:00:12.581Z,23.20
2023-05-07T13:02:41.849Z,22.90
2023-05-07T13:05:10.117Z,23.20
2023-05-07T13:07:38.639Z,23.20
2023-05-07T13:10:06.766Z,23.50
2023-05-07T13:12:34.254Z,23.40
2023-05-07T13:15:01.792Z,23.50
2023-05-07T13:17:29.312Z,23.40
2023-05-07T13:19:56.833Z,23.10
2023-05-07T13:22:24.495Z,23.20
2023-05-07T13:24:52.114Z,23.00
2023-05-07T13:27:20.663Z,22.70
2023-05-07T13:29:48.226Z,22.90
2023-05-07T13:32:15.805Z,22.90
2023-05-07T13:34:43.420Z,23.20
2023-05-07T13:37:11.624Z,23.50
2023-05-07T13:39:39.669Z,23.70
2023-05-07T13:42:07.142Z,23.70
2023-05-07T13:44:34.902Z,23.50
2023-05-07T13:47:03.003Z,23.80
2023-05-07T13:49:30.835Z,23.70
2023-05-07T13:51:58.526Z,24.00
2023-05-07T13:54:25.992Z,23.90
2023-05-07T13:56:53.499Z,23.20
2023-05-07T13:59:21.247Z,22.90
2023-05-07T14:01:49.127Z,22.90
2023-05-07T14:04:16.561Z,23.20
2023-05-07T14:06:44.070Z,23.30
2023-05-07T14:09:13.338Z,22.90
2023-05-07T14:11:41.071Z,22.90
2023-05-07T14:14:08.601Z,23.00
2023-05-07T14:16:36.208Z,22.90
2023-05-07T14:19:03.894Z,23.10
2023-05-07T14:21:32.112Z,23.00
2023-05-07T14:24:01.084Z,22.90
2023-05-07T14:26:28.831Z,22.80
2023-05-07T14:28:58.540Z,22.50
2023-05-07T14:31:26.560Z,22.30
2023-05-07T14:33:54.670Z,22.00
2023-05-07T14:36:24.037Z,22.00
2023-05-07T14:38:51.522Z,22.30
2023-05-07T14:41:19.031Z,22.60
2023-05-07T14:43:51.131Z,22.50
2023-05-07T14:46:19.841Z,22.50
2023-05-07T14:48:47.403Z,22.50
2023-05-07T14:51:15.457Z,22.50
2023-05-07T14:53:43.239Z,22.10
2023-05-07T14:56:11.007Z,22.20
2023-05-07T14:58:39.191Z,21.90
2023-05-07T15:01:06.659Z,22.10
2023-05-07T15:03:34.253Z,22.40
2023-05-07T15:06:03.607Z,22.40
2023-05-07T15:08:31.382Z,22.40
2023-05-07T15:10:58.990Z,22.50
2023-05-07T15:13:26.729Z,21.90
2023-05-07T15:15:54.586Z,21.50
2023-05-07T15:18:22.827Z,21.60
2023-05-07T15:20:50.672Z,22.00
2023-05-07T15:23:18.209Z,22.40
2023-05-07T15:25:46.852Z,22.20
2023-05-07T15:28:15.891Z,21.70
2023-05-07T15:30:43.452Z,21.50
2023-05-07T15:33:10.896Z,21.50
2023-05-07T15:35:38.947Z,21.10
2023-05-07T15:38:06.564Z,20.80
2023-05-07T15:40:36.347Z,20.50
2023-05-07T15:43:03.890Z,20.50
2023-05-07T15:45:31.550Z,20.40
2023-05-07T15:47:59.386Z,21.00
2023-05-07T15:50:27.661Z,21.70
2023-05-07T15:52:55.125Z,21.80
2023-05-07T15:55:22.813Z,21.50
2023-05-07T15:57:50.468Z,21.20
2023-05-07T16:00:19.234Z,21.00
2023-05-07T16:02:46.968Z,21.30
2023-05-07T16:05:14.836Z,21.20
2023-05-07T16:07:44.572Z,19.90
2023-05-07T16:10:12.475Z,19.50
2023-05-07T16:12:40.139Z,19.30
2023-05-07T16:15:08.738Z,19.20
2023-05-07T16:17:36.302Z,19.30
2023-05-07T16:20:06.610Z,19.40
2023-05-07T16:22:34.047Z,19.40
2023-05-07T16:25:02.673Z,19.60
2023-05-07T16:27:30.275Z,19.70
2023-05-07T16:29:57.750Z,20.00
2023-05-07T16:32:25.274Z,20.20
2023-05-07T16:34:52.807Z,20.40
2023-05-07T16:37:21.546Z,20.80
2023-05-07T16:39:49.024Z,20.90
2023-05-07T16:42:16.539Z,20.50
2023-05-07T16:44:44.001Z,20.90
2023-05-07T16:47:11.624Z,20.70
2023-05-07T16:49:39.182Z,20.40
2023-05-07T16:52:07.562Z,20.90
2023-05-07T16:54:37.074Z,21.20
2023-05-07T16:57:04.606Z,21.40
2023-05-07T16:59:33.522Z,21.10
2023-05-07T17:02:01.067Z,20.90
2023-05-07T17:04:30.023Z,21.40
2023-05-07T17:06:57.844Z,21.80
2023-05-07T17:09:25.442Z,21.40
2023-05-07T17:11:52.930Z,21.40
2023-05-07T17:14:20.453Z,21.60
2023-05-07T17:16:47.948Z,21.70
2023-05-07T17:19:15.894Z,21.80
2023-05-07T17:21:43.392Z,21.70
2023-05-07T17:24:10.928Z,21.50
2023-05-07T17:26:39.702Z,20.80
2023-05-07T17:29:07.594Z,20.70
2023-05-07T17:31:35.129Z,21.00
2023-05-07T17:34:02.977Z,21.20
2023-05-07T17:36:30.436Z,21.40
2023-05-07T17:38:57.992Z,21.50
2023-05-07T17:41:25.828Z,21.30
2023-05-07T17:43:53.297Z,20.80
2023-05-07T17:46:21.135Z,20.90
2023-05-07T17:48:48.727Z,20.90
2023-05-07T17:51:16.227Z,20.90
2023-05-07T17:53:43.788Z,20.90
2023-05-07T17:56:12.011Z,20.90
2023-05-07T17:58:57.492Z,21.00
2023-05-07T18:01:27.160Z,20.80
2023-05-07T18:03:54.787Z,20.90
2023-05-07T18:06:23.367Z,20.80
2023-05-07T18:08:50.947Z,20.50
2023-05-07T18:11:18.399Z,20.20
2023-05-07T18:13:45.870Z,20.20
2023-05-07T18:16:15.105Z,20.30
2023-05-07T18:18:42.586Z,20.50
2023-05-07T18:21:15.365Z,20.70
2023-05-07T18:23:42.827Z,20.70
2023-05-07T18:26:10.317Z,20.60
2023-05-07T18:28:38.138Z,20.50
2023-05-07T18:31:05.701Z,20.00
2023-05-07T18:33:33.541Z,19.60
2023-05-07T18:36:01.208Z,19.70
2023-05-07T18:38:28.942Z,19.70
2023-05-07T18:41:04.554Z,19.60
2023-05-07T18:43:34.022Z,19.70
2023-05-07T18:46:03.140Z,19.80
2023-05-07T18:48:30.971Z,19.70
2023-05-07T18:50:58.513Z,19.70
2023-05-07T18:53:26.047Z,19.50
2023-05-07T18:55:53.592Z,18.80
2023-05-07T18:58:21.088Z,18.50
2023-05-07T19:00:49.338Z,18.50
2023-05-07T19:03:17.559Z,18.80
2023-05-07T19:05:46.018Z,19.00
2023-05-07T19:08:13.808Z,19.10
2023-05-07T19:10:41.454Z,19.10
2023-05-07T19:13:09.023Z,19.10
2023-05-07T19:15:36.704Z,19.20
2023-05-07T19:18:04.559Z,18.90
2023-05-07T19:20:32.062Z,18.60
2023-05-07T19:22:59.881Z,18.20
2023-05-07T19:25:27.435Z,18.40
2023-05-07T19:27:55.932Z,18.50
2023-05-07T19:30:23.647Z,18.70
2023-05-07T19:32:51.191Z,18.70
2023-05-07T19:35:18.784Z,18.70
2023-05-07T19:37:46.781Z,18.70
2023-05-07T19:40:14.979Z,18.70
2023-05-07T19:42:42.566Z,18.70
2023-05-07T19:45:10.917Z,18.80
2023-05-07T19:47:38.629Z,18.80
2023-05-07T19:50:06.896Z,18.80
2023-05-07T19:52:34.933Z,18.80
2023-05-07T19:55:02.472Z,18.70
2023-05-07T19:57:30.109Z,18.70
2023-05-07T19:59:58.074Z,18.60
2023-05-07T20:02:25.983Z,18.60
2023-05-07T20:04:55.272Z,18.50
2023-05-07T20:07:22.813Z,18.40
2023-05-07T20:09:50.437Z,18.30
2023-05-07T20:12:18.268Z,18.40
2023-05-07T20:14:45.909Z,18.20
2023-05-07T20:17:13.818Z,18.20
2023-05-07T20:19:41.261Z,18.10
2023-05-07T20:22:08.780Z,17.90
2023-05-07T20:24:39.542Z,17.80
2023-05-07T20:27:07.078Z,17.70
2023-05-07T20:29:34.747Z,17.70
2023-05-07T20:32:02.527Z,17.60
2023-05-07T20:34:30.038Z,17.60
2023-05-07T20:36:57.546Z,17.60
2023-05-07T20:39:25.021Z,17.50
2023-05-07T20:41:53.165Z,17.30
2023-05-07T20:44:20.838Z,17.00
2023-05-07T20:46:48.395Z,17.00
2023-05-07T20:49:16.651Z,17.10
2023-05-07T20:51:44.152Z,17.10
2023-05-07T20:54:11.768Z,17.10
2023-05-07T20:56:39.218Z,17.10
2023-05-07T20:59:06.788Z,17.20
2023-05-07T21:01:34.780Z,17.30
2023-05-07T21:04:02.941Z,17.30
2023-05-07T21:06:30.999Z,17.40
2023-05-07T21:08:58.456Z,17.40
2023-05-07T21:11:26.122Z,17.30
2023-05-07T21:13:53.896Z,17.30
2023-05-07T21:16:23.217Z,17.30
2023-05-07T21:18:51.195Z,17.40
2023-05-07T21:21:19.319Z,17.40
2023-05-07T21:23:47.264Z,17.40
2023-05-07T21:26:19.521Z,17.30
2023-05-07T21:28:47.699Z,17.40
2023-05-07T21:31:15.608Z,17.40
2023-05-07T21:33:44.281Z,17.40
2023-05-07T21:36:12.014Z,17.50
2023-05-07T21:38:40.274Z,17.40
2023-05-07T21:41:07.888Z,17.30
2023-05-07T21:43:35.635Z,17.40
2023-05-07T21:46:07.588Z,17.40
2023-05-07T21:48:35.219Z,17.30
2023-05-07T21:51:04.518Z,17.30
2023-05-07T21:53:32.163Z,17.30
2023-05-07T21:56:05.438Z,17.20
2023-05-07T21:58:33.002Z,17.10
2023-05-07T22:01:01.445Z,17.10
2023-05-07T22:03:29.172Z,17.20
2023-05-07T22:05:56.990Z,17.30
2023-05-07T22:08:24.630Z,17.30
2023-05-07T22:10:52.274Z,17.30
2023-05-07T22:13:19.801Z,17.30
2023-05-07T22:15:56.618Z,17.40
2023-05-07T22:18:26.239Z,17.30
2023-05-07T22:20:53.907Z,17.40
2023-05-07T22:23:21.380Z,17.30
2023-05-07T22:25:48.942Z,17.10
2023-05-07T22:28:16.541Z,17.10
2023-05-07T22:30:44.219Z,17.00
2023-05-07T22:33:11.701Z,16.80
2023-05-07T22:35:39.248Z,16.90
2023-05-07T22:38:06.773Z,17.00
2023-05-07T22:40:34.247Z,17.00
2023-05-07T22:43:01.766Z,17.10
2023-05-07T22:45:29.258Z,17.20
2023-05-07T22:47:56.759Z,17.20
2023-05-07T22:50:24.353Z,17.30
2023-05-07T22:52:51.769Z,17.20
2023-05-07T22:55:19.588Z,17.20
2023-05-07T22:57:47.242Z,17.20
2023-05-07T23:00:15.394Z,16.80
2023-05-07T23:02:43.428Z,16.70
2023-05-07T23:05:11.041Z,16.80
2023-05-07T23:07:38.596Z,16.90
2023-05-07T23:10:06.721Z,17.00
2023-05-07T23:12:34.485Z,17.10
2023-05-07T23:15:02.046Z,17.10
2023-05-07T23:17:29.918Z,16.90
2023-05-07T23:19:57.681Z,16.50
2023-05-07T23:22:25.274Z,16.40
2023-05-07T23:24:52.770Z,16.40
2023-05-07T23:27:20.337Z,16.60
2023-05-07T23:29:47.891Z,16.70
2023-05-07T23:32:15.385Z,16.80
2023-05-07T23:34:43.098Z,16.90
2023-05-07T23:37:11.221Z,16.90
2023-05-07T23:39:38.770Z,17.00
2023-05-07T23:42:06.692Z,17.00
2023-05-07T23:44:34.251Z,17.00
2023-05-07T23:47:01.820Z,17.00
2023-05-07T23:49:29.417Z,17.20
2023-05-07T23:51:56.908Z,17.20
2023-05-07T23:54:24.443Z,17.30
2023-05-07T23:56:52.010Z,17.20
2023-05-07T23:59:19.531Z,17.20
